sensor_id;sensor_type;location;lat;lon;timestamp;P1;durP1;ratioP1;P2;durP2;ratioP2
21593;SDS011;10959;51.328;7.322;2023-04-01T00:01:07;3.20;;;0.83;;
21593;SDS011;10959;51.328;7.322;2023-04-01T00:03:33;1.17;;;0.70;;
21593;SDS011;10959;51.328;7.322;2023-04-01T00:06:00;0.70;;;0.50;;
21593;SDS011;10959;51.328;7.322;2023-04-01T00:08:27;0.60;;;0.30;;
21593;SDS011;10959;51.328;7.322;2023-04-01T00:10:55;3.17;;;0.60;;
21593;SDS011;10959;51.328;7.322;2023-04-01T00:13:22;3.03;;;0.70;;
21593;SDS011;10959;51.328;7.322;2023-04-01T00:15:50;1.70;;;0.60;;
21593;SDS011;10959;51.328;7.322;2023-04-01T00:18:18;1.67;;;0.60;;
21593;SDS011;10959;51.328;7.322;2023-04-01T00:20:45;2.20;;;0.80;;
21593;SDS011;10959;51.328;7.322;2023-04-01T00:23:13;1.23;;;0.60;;
21593;SDS011;10959;51.328;7.322;2023-04-01T00:25:40;2.07;;;0.60;;
21593;SDS011;10959;51.328;7.322;2023-04-01T00:28:06;0.70;;;0.40;;
21593;SDS011;10959;51.328;7.322;2023-04-01T00:30:33;1.57;;;0.60;;
21593;SDS011;10959;51.328;7.322;2023-04-01T00:32:59;1.17;;;0.50;;
21593;SDS011;10959;51.328;7.322;2023-04-01T00:35:27;2.63;;;0.73;;
21593;SDS011;10959;51.328;7.322;2023-04-01T00:37:54;1.30;;;0.50;;
21593;SDS011;10959;51.328;7.322;2023-04-01T00:40:26;0.80;;;0.40;;
21593;SDS011;10959;51.328;7.322;2023-04-01T00:42:53;0.80;;;0.40;;
21593;SDS011;10959;51.328;7.322;2023-04-01T00:45:27;1.43;;;0.40;;
21593;SDS011;10959;51.328;7.322;2023-04-01T00:47:56;1.93;;;0.37;;
21593;SDS011;10959;51.328;7.322;2023-04-01T00:50:28;1.43;;;0.30;;
21593;SDS011;10959;51.328;7.322;2023-04-01T00:52:57;2.40;;;0.60;;
21593;SDS011;10959;51.328;7.322;2023-04-01T00:55:24;1.63;;;0.40;;
21593;SDS011;10959;51.328;7.322;2023-04-01T00:57:53;1.10;;;0.53;;
21593;SDS011;10959;51.328;7.322;2023-04-01T01:00:22;1.33;;;0.70;;
21593;SDS011;10959;51.328;7.322;2023-04-01T01:02:48;1.17;;;0.40;;
21593;SDS011;10959;51.328;7.322;2023-04-01T01:05:16;1.53;;;0.50;;
21593;SDS011;10959;51.328;7.322;2023-04-01T01:07:51;1.17;;;0.70;;
21593;SDS011;10959;51.328;7.322;2023-04-01T01:10:25;1.07;;;0.50;;
21593;SDS011;10959;51.328;7.322;2023-04-01T01:12:58;1.33;;;0.80;;
21593;SDS011;10959;51.328;7.322;2023-04-01T01:15:35;0.60;;;0.40;;
21593;SDS011;10959;51.328;7.322;2023-04-01T01:18:08;1.10;;;0.40;;
21593;SDS011;10959;51.328;7.322;2023-04-01T01:26:49;0.93;;;0.53;;
21593;SDS011;10959;51.328;7.322;2023-04-01T01:29:30;1.87;;;0.63;;
21593;SDS011;10959;51.328;7.322;2023-04-01T01:32:11;1.13;;;0.67;;
21593;SDS011;10959;51.328;7.322;2023-04-01T01:34:50;2.23;;;0.40;;
21593;SDS011;10959;51.328;7.322;2023-04-01T01:37:25;1.53;;;0.53;;
21593;SDS011;10959;51.328;7.322;2023-04-01T01:39:56;1.00;;;0.50;;
21593;SDS011;10959;51.328;7.322;2023-04-01T01:42:27;1.77;;;0.50;;
21593;SDS011;10959;51.328;7.322;2023-04-01T01:44:57;0.63;;;0.40;;
21593;SDS011;10959;51.328;7.322;2023-04-01T01:47:25;0.77;;;0.40;;
21593;SDS011;10959;51.328;7.322;2023-04-01T01:49:54;1.13;;;0.50;;
21593;SDS011;10959;51.328;7.322;2023-04-01T01:52:21;0.77;;;0.40;;
21593;SDS011;10959;51.328;7.322;2023-04-01T01:54:51;0.87;;;0.50;;
21593;SDS011;10959;51.328;7.322;2023-04-01T01:57:21;4.20;;;0.60;;
21593;SDS011;10959;51.328;7.322;2023-04-01T01:59:52;1.33;;;0.37;;
21593;SDS011;10959;51.328;7.322;2023-04-01T02:02:22;1.37;;;0.57;;
21593;SDS011;10959;51.328;7.322;2023-04-01T02:04:50;2.30;;;0.50;;
21593;SDS011;10959;51.328;7.322;2023-04-01T02:07:19;0.70;;;0.60;;
21593;SDS011;10959;51.328;7.322;2023-04-01T02:09:51;0.63;;;0.30;;
21593;SDS011;10959;51.328;7.322;2023-04-01T02:12:18;1.60;;;0.80;;
21593;SDS011;10959;51.328;7.322;2023-04-01T02:14:47;1.90;;;0.57;;
21593;SDS011;10959;51.328;7.322;2023-04-01T02:17:19;1.47;;;0.40;;
21593;SDS011;10959;51.328;7.322;2023-04-01T02:19:47;2.43;;;0.43;;
21593;SDS011;10959;51.328;7.322;2023-04-01T02:22:16;0.80;;;0.40;;
21593;SDS011;10959;51.328;7.322;2023-04-01T02:24:46;0.97;;;0.40;;
21593;SDS011;10959;51.328;7.322;2023-04-01T02:27:14;1.60;;;0.40;;
21593;SDS011;10959;51.328;7.322;2023-04-01T02:29:41;0.80;;;0.40;;
21593;SDS011;10959;51.328;7.322;2023-04-01T02:32:08;0.60;;;0.40;;
21593;SDS011;10959;51.328;7.322;2023-04-01T02:34:36;0.73;;;0.40;;
21593;SDS011;10959;51.328;7.322;2023-04-01T02:37:02;0.40;;;0.20;;
21593;SDS011;10959;51.328;7.322;2023-04-01T02:39:29;1.17;;;0.50;;
21593;SDS011;10959;51.328;7.322;2023-04-01T02:41:56;0.87;;;0.33;;
21593;SDS011;10959;51.328;7.322;2023-04-01T02:44:24;0.47;;;0.40;;
21593;SDS011;10959;51.328;7.322;2023-04-01T02:46:50;0.97;;;0.50;;
21593;SDS011;10959;51.328;7.322;2023-04-01T02:49:17;1.10;;;0.40;;
21593;SDS011;10959;51.328;7.322;2023-04-01T02:51:44;1.57;;;0.50;;
21593;SDS011;10959;51.328;7.322;2023-04-01T02:54:10;1.43;;;0.50;;
21593;SDS011;10959;51.328;7.322;2023-04-01T02:56:37;0.43;;;0.43;;
21593;SDS011;10959;51.328;7.322;2023-04-01T02:59:03;1.37;;;0.60;;
21593;SDS011;10959;51.328;7.322;2023-04-01T03:01:31;0.97;;;0.30;;
21593;SDS011;10959;51.328;7.322;2023-04-01T03:03:57;1.27;;;0.50;;
21593;SDS011;10959;51.328;7.322;2023-04-01T03:06:24;0.37;;;0.30;;
21593;SDS011;10959;51.328;7.322;2023-04-01T03:08:50;1.07;;;0.30;;
21593;SDS011;10959;51.328;7.322;2023-04-01T03:11:17;0.60;;;0.30;;
21593;SDS011;10959;51.328;7.322;2023-04-01T03:13:43;0.47;;;0.20;;
21593;SDS011;10959;51.328;7.322;2023-04-01T03:16:10;1.93;;;0.40;;
21593;SDS011;10959;51.328;7.322;2023-04-01T03:18:37;0.50;;;0.37;;
21593;SDS011;10959;51.328;7.322;2023-04-01T03:21:14;0.90;;;0.20;;
21593;SDS011;10959;51.328;7.322;2023-04-01T03:23:41;0.60;;;0.30;;
21593;SDS011;10959;51.328;7.322;2023-04-01T03:26:08;0.40;;;0.20;;
21593;SDS011;10959;51.328;7.322;2023-04-01T03:28:34;0.80;;;0.47;;
21593;SDS011;10959;51.328;7.322;2023-04-01T03:31:01;0.93;;;0.30;;
21593;SDS011;10959;51.328;7.322;2023-04-01T03:33:27;0.50;;;0.30;;
21593;SDS011;10959;51.328;7.322;2023-04-01T03:35:55;0.50;;;0.30;;
21593;SDS011;10959;51.328;7.322;2023-04-01T03:38:22;0.60;;;0.30;;
21593;SDS011;10959;51.328;7.322;2023-04-01T03:40:48;0.50;;;0.30;;
21593;SDS011;10959;51.328;7.322;2023-04-01T03:43:15;0.30;;;0.30;;
21593;SDS011;10959;51.328;7.322;2023-04-01T03:45:45;2.20;;;0.40;;
21593;SDS011;10959;51.328;7.322;2023-04-01T03:48:12;0.80;;;0.50;;
21593;SDS011;10959;51.328;7.322;2023-04-01T03:50:38;0.90;;;0.30;;
21593;SDS011;10959;51.328;7.322;2023-04-01T03:53:06;0.87;;;0.40;;
21593;SDS011;10959;51.328;7.322;2023-04-01T03:55:33;0.50;;;0.40;;
21593;SDS011;10959;51.328;7.322;2023-04-01T03:58:01;0.60;;;0.30;;
21593;SDS011;10959;51.328;7.322;2023-04-01T04:00:28;0.70;;;0.40;;
21593;SDS011;10959;51.328;7.322;2023-04-01T04:02:55;0.50;;;0.30;;
21593;SDS011;10959;51.328;7.322;2023-04-01T04:05:21;1.77;;;0.57;;
21593;SDS011;10959;51.328;7.322;2023-04-01T04:07:48;1.23;;;0.70;;
21593;SDS011;10959;51.328;7.322;2023-04-01T04:10:17;1.53;;;0.80;;
21593;SDS011;10959;51.328;7.322;2023-04-01T04:12:44;0.53;;;0.50;;
21593;SDS011;10959;51.328;7.322;2023-04-01T04:15:11;0.77;;;0.60;;
21593;SDS011;10959;51.328;7.322;2023-04-01T04:17:38;2.03;;;0.70;;
21593;SDS011;10959;51.328;7.322;2023-04-01T04:20:05;0.50;;;0.50;;
21593;SDS011;10959;51.328;7.322;2023-04-01T04:22:32;1.10;;;0.80;;
21593;SDS011;10959;51.328;7.322;2023-04-01T04:24:59;1.13;;;0.57;;
21593;SDS011;10959;51.328;7.322;2023-04-01T04:27:27;1.03;;;0.70;;
21593;SDS011;10959;51.328;7.322;2023-04-01T04:29:53;0.70;;;0.70;;
21593;SDS011;10959;51.328;7.322;2023-04-01T04:32:20;0.80;;;0.60;;
21593;SDS011;10959;51.328;7.322;2023-04-01T04:34:46;1.07;;;0.97;;
21593;SDS011;10959;51.328;7.322;2023-04-01T04:37:12;0.97;;;0.70;;
21593;SDS011;10959;51.328;7.322;2023-04-01T04:39:39;1.77;;;0.90;;
21593;SDS011;10959;51.328;7.322;2023-04-01T04:42:05;0.70;;;0.70;;
21593;SDS011;10959;51.328;7.322;2023-04-01T04:44:33;1.20;;;0.70;;
21593;SDS011;10959;51.328;7.322;2023-04-01T04:47:00;0.57;;;0.40;;
21593;SDS011;10959;51.328;7.322;2023-04-01T04:49:27;1.73;;;0.60;;
21593;SDS011;10959;51.328;7.322;2023-04-01T04:51:53;1.47;;;0.70;;
21593;SDS011;10959;51.328;7.322;2023-04-01T04:54:20;1.00;;;0.60;;
21593;SDS011;10959;51.328;7.322;2023-04-01T04:56:46;0.67;;;0.60;;
21593;SDS011;10959;51.328;7.322;2023-04-01T04:59:13;0.60;;;0.60;;
21593;SDS011;10959;51.328;7.322;2023-04-01T05:01:41;1.00;;;0.57;;
21593;SDS011;10959;51.328;7.322;2023-04-01T05:04:07;0.83;;;0.60;;
21593;SDS011;10959;51.328;7.322;2023-04-01T05:06:33;0.60;;;0.60;;
21593;SDS011;10959;51.328;7.322;2023-04-01T05:09:00;0.83;;;0.77;;
21593;SDS011;10959;51.328;7.322;2023-04-01T05:11:26;1.00;;;0.73;;
21593;SDS011;10959;51.328;7.322;2023-04-01T05:13:53;0.97;;;0.77;;
21593;SDS011;10959;51.328;7.322;2023-04-01T05:16:19;1.10;;;0.80;;
21593;SDS011;10959;51.328;7.322;2023-04-01T05:18:48;0.80;;;0.80;;
21593;SDS011;10959;51.328;7.322;2023-04-01T05:21:14;1.87;;;0.90;;
21593;SDS011;10959;51.328;7.322;2023-04-01T05:23:41;1.13;;;0.70;;
21593;SDS011;10959;51.328;7.322;2023-04-01T05:26:10;0.70;;;0.70;;
21593;SDS011;10959;51.328;7.322;2023-04-01T05:28:38;0.70;;;0.63;;
21593;SDS011;10959;51.328;7.322;2023-04-01T05:31:05;1.47;;;0.70;;
21593;SDS011;10959;51.328;7.322;2023-04-01T05:33:32;1.03;;;0.70;;
21593;SDS011;10959;51.328;7.322;2023-04-01T05:36:06;0.80;;;0.80;;
21593;SDS011;10959;51.328;7.322;2023-04-01T05:38:34;0.63;;;0.63;;
21593;SDS011;10959;51.328;7.322;2023-04-01T05:41:00;0.93;;;0.70;;
21593;SDS011;10959;51.328;7.322;2023-04-01T05:43:28;0.77;;;0.73;;
21593;SDS011;10959;51.328;7.322;2023-04-01T05:45:54;0.60;;;0.60;;
21593;SDS011;10959;51.328;7.322;2023-04-01T05:48:21;0.70;;;0.67;;
21593;SDS011;10959;51.328;7.322;2023-04-01T05:50:47;0.70;;;0.70;;
21593;SDS011;10959;51.328;7.322;2023-04-01T05:53:15;0.40;;;0.40;;
21593;SDS011;10959;51.328;7.322;2023-04-01T05:55:42;1.03;;;0.80;;
21593;SDS011;10959;51.328;7.322;2023-04-01T05:58:08;0.50;;;0.50;;
21593;SDS011;10959;51.328;7.322;2023-04-01T06:00:35;0.90;;;0.90;;
21593;SDS011;10959;51.328;7.322;2023-04-01T06:03:01;0.70;;;0.70;;
21593;SDS011;10959;51.328;7.322;2023-04-01T06:05:28;0.50;;;0.50;;
21593;SDS011;10959;51.328;7.322;2023-04-01T06:07:57;0.60;;;0.60;;
21593;SDS011;10959;51.328;7.322;2023-04-01T06:10:29;1.00;;;0.80;;
21593;SDS011;10959;51.328;7.322;2023-04-01T06:13:06;0.50;;;0.50;;
21593;SDS011;10959;51.328;7.322;2023-04-01T06:15:38;0.43;;;0.43;;
21593;SDS011;10959;51.328;7.322;2023-04-01T06:18:21;0.50;;;0.50;;
21593;SDS011;10959;51.328;7.322;2023-04-01T06:21:06;0.80;;;0.60;;
21593;SDS011;10959;51.328;7.322;2023-04-01T06:23:50;0.50;;;0.50;;
21593;SDS011;10959;51.328;7.322;2023-04-01T06:26:29;0.60;;;0.60;;
21593;SDS011;10959;51.328;7.322;2023-04-01T06:32:29;0.60;;;0.60;;
21593;SDS011;10959;51.328;7.322;2023-04-01T06:38:17;0.83;;;0.63;;
21593;SDS011;10959;51.328;7.322;2023-04-01T06:41:08;0.73;;;0.70;;
21593;SDS011;10959;51.328;7.322;2023-04-01T06:43:51;0.60;;;0.50;;
21593;SDS011;10959;51.328;7.322;2023-04-01T06:46:27;1.10;;;0.60;;
21593;SDS011;10959;51.328;7.322;2023-04-01T06:49:05;1.37;;;0.90;;
21593;SDS011;10959;51.328;7.322;2023-04-01T06:51:44;0.70;;;0.60;;
21593;SDS011;10959;51.328;7.322;2023-04-01T06:54:18;0.67;;;0.53;;
21593;SDS011;10959;51.328;7.322;2023-04-01T06:56:48;0.67;;;0.50;;
21593;SDS011;10959;51.328;7.322;2023-04-01T06:59:24;0.60;;;0.50;;
21593;SDS011;10959;51.328;7.322;2023-04-01T07:01:53;1.10;;;0.50;;
21593;SDS011;10959;51.328;7.322;2023-04-01T07:04:23;0.83;;;0.60;;
21593;SDS011;10959;51.328;7.322;2023-04-01T07:06:53;0.80;;;0.50;;
21593;SDS011;10959;51.328;7.322;2023-04-01T07:09:22;0.77;;;0.60;;
21593;SDS011;10959;51.328;7.322;2023-04-01T07:11:53;0.60;;;0.60;;
21593;SDS011;10959;51.328;7.322;2023-04-01T07:14:24;0.73;;;0.70;;
21593;SDS011;10959;51.328;7.322;2023-04-01T07:16:56;1.53;;;0.70;;
21593;SDS011;10959;51.328;7.322;2023-04-01T07:19:29;1.00;;;0.90;;
21593;SDS011;10959;51.328;7.322;2023-04-01T07:22:00;2.13;;;0.90;;
21593;SDS011;10959;51.328;7.322;2023-04-01T07:24:32;1.07;;;0.97;;
21593;SDS011;10959;51.328;7.322;2023-04-01T07:27:00;1.87;;;0.90;;
21593;SDS011;10959;51.328;7.322;2023-04-01T07:29:28;1.63;;;1.00;;
21593;SDS011;10959;51.328;7.322;2023-04-01T07:32:12;0.80;;;0.80;;
21593;SDS011;10959;51.328;7.322;2023-04-01T07:35:01;0.60;;;0.60;;
21593;SDS011;10959;51.328;7.322;2023-04-01T07:37:37;1.10;;;0.53;;
21593;SDS011;10959;51.328;7.322;2023-04-01T07:40:15;0.70;;;0.57;;
21593;SDS011;10959;51.328;7.322;2023-04-01T07:42:51;1.03;;;0.70;;
21593;SDS011;10959;51.328;7.322;2023-04-01T07:45:35;0.60;;;0.60;;
21593;SDS011;10959;51.328;7.322;2023-04-01T07:48:13;0.77;;;0.63;;
21593;SDS011;10959;51.328;7.322;2023-04-01T07:50:47;1.03;;;0.70;;
21593;SDS011;10959;51.328;7.322;2023-04-01T07:53:22;0.50;;;0.50;;
21593;SDS011;10959;51.328;7.322;2023-04-01T07:55:59;0.40;;;0.40;;
21593;SDS011;10959;51.328;7.322;2023-04-01T07:58:32;1.20;;;1.10;;
21593;SDS011;10959;51.328;7.322;2023-04-01T08:01:11;1.13;;;0.90;;
21593;SDS011;10959;51.328;7.322;2023-04-01T08:03:47;1.47;;;0.60;;
21593;SDS011;10959;51.328;7.322;2023-04-01T08:06:28;0.70;;;0.50;;
21593;SDS011;10959;51.328;7.322;2023-04-01T08:09:04;2.00;;;0.70;;
21593;SDS011;10959;51.328;7.322;2023-04-01T08:11:46;1.33;;;0.93;;
21593;SDS011;10959;51.328;7.322;2023-04-01T08:14:25;0.90;;;0.83;;
21593;SDS011;10959;51.328;7.322;2023-04-01T08:17:05;0.70;;;0.70;;
21593;SDS011;10959;51.328;7.322;2023-04-01T08:19:43;0.67;;;0.67;;
21593;SDS011;10959;51.328;7.322;2023-04-01T08:22:22;0.60;;;0.60;;
21593;SDS011;10959;51.328;7.322;2023-04-01T08:24:54;0.90;;;0.73;;
21593;SDS011;10959;51.328;7.322;2023-04-01T08:27:28;0.70;;;0.70;;
21593;SDS011;10959;51.328;7.322;2023-04-01T08:30:01;1.87;;;0.70;;
21593;SDS011;10959;51.328;7.322;2023-04-01T08:32:34;0.80;;;0.77;;
21593;SDS011;10959;51.328;7.322;2023-04-01T08:35:07;1.00;;;0.90;;
21593;SDS011;10959;51.328;7.322;2023-04-01T08:37:36;0.90;;;0.63;;
21593;SDS011;10959;51.328;7.322;2023-04-01T08:40:14;0.80;;;0.77;;
21593;SDS011;10959;51.328;7.322;2023-04-01T08:43:00;1.30;;;0.87;;
21593;SDS011;10959;51.328;7.322;2023-04-01T08:45:41;0.73;;;0.70;;
21593;SDS011;10959;51.328;7.322;2023-04-01T08:48:27;1.00;;;0.90;;
21593;SDS011;10959;51.328;7.322;2023-04-01T08:57:12;0.83;;;0.80;;
21593;SDS011;10959;51.328;7.322;2023-04-01T08:59:47;1.17;;;0.83;;
21593;SDS011;10959;51.328;7.322;2023-04-01T09:02:32;1.00;;;0.90;;
21593;SDS011;10959;51.328;7.322;2023-04-01T09:08:19;0.80;;;0.80;;
21593;SDS011;10959;51.328;7.322;2023-04-01T09:11:04;0.77;;;0.73;;
21593;SDS011;10959;51.328;7.322;2023-04-01T09:13:41;0.80;;;0.80;;
21593;SDS011;10959;51.328;7.322;2023-04-01T09:16:27;0.90;;;0.90;;
21593;SDS011;10959;51.328;7.322;2023-04-01T09:19:11;0.70;;;0.70;;
21593;SDS011;10959;51.328;7.322;2023-04-01T09:21:52;2.10;;;0.70;;
21593;SDS011;10959;51.328;7.322;2023-04-01T09:27:22;0.83;;;0.50;;
21593;SDS011;10959;51.328;7.322;2023-04-01T09:36:03;1.30;;;1.20;;
21593;SDS011;10959;51.328;7.322;2023-04-01T09:38:38;1.20;;;1.10;;
21593;SDS011;10959;51.328;7.322;2023-04-01T09:41:22;1.90;;;1.70;;
21593;SDS011;10959;51.328;7.322;2023-04-01T09:44:00;2.13;;;1.90;;
21593;SDS011;10959;51.328;7.322;2023-04-01T09:46:32;1.90;;;1.80;;
21593;SDS011;10959;51.328;7.322;2023-04-01T09:49:14;2.17;;;1.97;;
21593;SDS011;10959;51.328;7.322;2023-04-01T09:52:00;3.70;;;2.60;;
21593;SDS011;10959;51.328;7.322;2023-04-01T09:54:40;2.50;;;2.30;;
21593;SDS011;10959;51.328;7.322;2023-04-01T10:06:45;4.00;;;3.70;;
21593;SDS011;10959;51.328;7.322;2023-04-01T10:12:29;4.60;;;4.00;;
21593;SDS011;10959;51.328;7.322;2023-04-01T10:15:19;4.30;;;3.90;;
21593;SDS011;10959;51.328;7.322;2023-04-01T10:18:10;4.23;;;3.90;;
21593;SDS011;10959;51.328;7.322;2023-04-01T10:21:05;5.23;;;4.67;;
21593;SDS011;10959;51.328;7.322;2023-04-01T10:27:16;5.47;;;4.97;;
21593;SDS011;10959;51.328;7.322;2023-04-01T10:39:19;4.50;;;4.10;;
21593;SDS011;10959;51.328;7.322;2023-04-01T10:42:11;4.80;;;4.40;;
21593;SDS011;10959;51.328;7.322;2023-04-01T10:45:15;5.00;;;4.60;;
21593;SDS011;10959;51.328;7.322;2023-04-01T10:48:10;4.03;;;3.63;;
21593;SDS011;10959;51.328;7.322;2023-04-01T10:50:47;4.83;;;4.43;;
21593;SDS011;10959;51.328;7.322;2023-04-01T10:53:31;4.07;;;3.67;;
21593;SDS011;10959;51.328;7.322;2023-04-01T10:59:15;4.90;;;4.40;;
21593;SDS011;10959;51.328;7.322;2023-04-01T11:11:59;3.67;;;3.37;;
21593;SDS011;10959;51.328;7.322;2023-04-01T11:14:59;3.90;;;3.50;;
21593;SDS011;10959;51.328;7.322;2023-04-01T11:17:57;4.30;;;3.57;;
21593;SDS011;10959;51.328;7.322;2023-04-01T11:20:41;3.80;;;3.50;;
21593;SDS011;10959;51.328;7.322;2023-04-01T11:23:27;4.00;;;3.70;;
21593;SDS011;10959;51.328;7.322;2023-04-01T11:26:07;2.77;;;2.57;;
21593;SDS011;10959;51.328;7.322;2023-04-01T11:28:42;2.50;;;2.30;;
21593;SDS011;10959;51.328;7.322;2023-04-01T11:31:28;2.90;;;2.40;;
21593;SDS011;10959;51.328;7.322;2023-04-01T11:34:02;2.27;;;2.07;;
21593;SDS011;10959;51.328;7.322;2023-04-01T11:36:43;2.40;;;2.20;;
21593;SDS011;10959;51.328;7.322;2023-04-01T11:39:23;2.13;;;1.93;;
21593;SDS011;10959;51.328;7.322;2023-04-01T11:42:01;2.60;;;2.30;;
21593;SDS011;10959;51.328;7.322;2023-04-01T11:44:39;2.20;;;2.00;;
21593;SDS011;10959;51.328;7.322;2023-04-01T11:47:16;2.17;;;2.07;;
21593;SDS011;10959;51.328;7.322;2023-04-01T11:49:59;1.70;;;1.60;;
21593;SDS011;10959;51.328;7.322;2023-04-01T11:52:47;1.63;;;1.53;;
21593;SDS011;10959;51.328;7.322;2023-04-01T11:55:39;2.83;;;1.60;;
21593;SDS011;10959;51.328;7.322;2023-04-01T11:58:22;2.17;;;1.97;;
21593;SDS011;10959;51.328;7.322;2023-04-01T12:01:06;2.00;;;1.90;;
21593;SDS011;10959;51.328;7.322;2023-04-01T12:03:46;2.07;;;1.60;;
21593;SDS011;10959;51.328;7.322;2023-04-01T12:06:23;1.60;;;1.50;;
21593;SDS011;10959;51.328;7.322;2023-04-01T12:08:58;1.90;;;1.60;;
21593;SDS011;10959;51.328;7.322;2023-04-01T12:11:32;1.90;;;1.70;;
21593;SDS011;10959;51.328;7.322;2023-04-01T12:14:08;2.10;;;1.53;;
21593;SDS011;10959;51.328;7.322;2023-04-01T12:16:44;2.13;;;1.93;;
21593;SDS011;10959;51.328;7.322;2023-04-01T12:19:23;1.50;;;1.40;;
21593;SDS011;10959;51.328;7.322;2023-04-01T12:22:03;1.47;;;1.37;;
21593;SDS011;10959;51.328;7.322;2023-04-01T12:24:46;2.17;;;2.07;;
21593;SDS011;10959;51.328;7.322;2023-04-01T12:33:02;2.30;;;2.10;;
21593;SDS011;10959;51.328;7.322;2023-04-01T12:35:49;2.30;;;2.10;;
21593;SDS011;10959;51.328;7.322;2023-04-01T12:38:28;1.90;;;1.80;;
21593;SDS011;10959;51.328;7.322;2023-04-01T12:41:03;2.20;;;2.00;;
21593;SDS011;10959;51.328;7.322;2023-04-01T12:46:39;2.97;;;2.23;;
21593;SDS011;10959;51.328;7.322;2023-04-01T12:49:27;2.27;;;2.07;;
21593;SDS011;10959;51.328;7.322;2023-04-01T12:52:10;2.57;;;1.90;;
21593;SDS011;10959;51.328;7.322;2023-04-01T13:00:39;2.50;;;2.30;;
21593;SDS011;10959;51.328;7.322;2023-04-01T13:03:21;2.50;;;2.30;;
21593;SDS011;10959;51.328;7.322;2023-04-01T13:06:08;3.40;;;3.10;;
21593;SDS011;10959;51.328;7.322;2023-04-01T13:09:00;2.67;;;2.47;;
21593;SDS011;10959;51.328;7.322;2023-04-01T13:11:44;4.03;;;2.97;;
21593;SDS011;10959;51.328;7.322;2023-04-01T13:14:33;3.80;;;3.37;;
21593;SDS011;10959;51.328;7.322;2023-04-01T13:17:11;4.53;;;4.13;;
21593;SDS011;10959;51.328;7.322;2023-04-01T13:19:45;4.67;;;4.27;;
21593;SDS011;10959;51.328;7.322;2023-04-01T13:22:17;5.03;;;4.43;;
21593;SDS011;10959;51.328;7.322;2023-04-01T13:24:51;4.80;;;4.40;;
21593;SDS011;10959;51.328;7.322;2023-04-01T13:27:27;4.50;;;4.10;;
21593;SDS011;10959;51.328;7.322;2023-04-01T13:30:02;5.43;;;4.67;;
21593;SDS011;10959;51.328;7.322;2023-04-01T13:32:50;4.87;;;4.37;;
21593;SDS011;10959;51.328;7.322;2023-04-01T13:35:35;5.67;;;5.17;;
21593;SDS011;10959;51.328;7.322;2023-04-01T13:38:14;5.50;;;5.00;;
21593;SDS011;10959;51.328;7.322;2023-04-01T13:40:53;5.87;;;5.27;;
21593;SDS011;10959;51.328;7.322;2023-04-01T13:43:34;5.40;;;4.90;;
21593;SDS011;10959;51.328;7.322;2023-04-01T13:46:07;4.80;;;4.40;;
21593;SDS011;10959;51.328;7.322;2023-04-01T13:51:45;4.70;;;4.20;;
21593;SDS011;10959;51.328;7.322;2023-04-01T13:57:23;4.23;;;3.93;;
21593;SDS011;10959;51.328;7.322;2023-04-01T14:03:00;4.77;;;4.37;;
21593;SDS011;10959;51.328;7.322;2023-04-01T14:05:45;4.27;;;3.70;;
21593;SDS011;10959;51.328;7.322;2023-04-01T14:08:20;3.70;;;3.40;;
21593;SDS011;10959;51.328;7.322;2023-04-01T14:11:03;3.90;;;3.57;;
21593;SDS011;10959;51.328;7.322;2023-04-01T14:13:43;3.27;;;3.00;;
21593;SDS011;10959;51.328;7.322;2023-04-01T14:16:23;3.97;;;3.17;;
21593;SDS011;10959;51.328;7.322;2023-04-01T14:19:22;3.23;;;2.93;;
21593;SDS011;10959;51.328;7.322;2023-04-01T14:22:03;2.97;;;2.70;;
21593;SDS011;10959;51.328;7.322;2023-04-01T14:24:45;3.67;;;2.70;;
21593;SDS011;10959;51.328;7.322;2023-04-01T14:27:37;2.93;;;2.73;;
21593;SDS011;10959;51.328;7.322;2023-04-01T14:30:24;4.23;;;3.27;;
21593;SDS011;10959;51.328;7.322;2023-04-01T14:33:01;3.00;;;2.70;;
21593;SDS011;10959;51.328;7.322;2023-04-01T14:35:38;2.87;;;2.53;;
21593;SDS011;10959;51.328;7.322;2023-04-01T14:38:27;3.47;;;2.87;;
21593;SDS011;10959;51.328;7.322;2023-04-01T14:41:05;2.70;;;2.50;;
21593;SDS011;10959;51.328;7.322;2023-04-01T14:43:48;3.17;;;2.67;;
21593;SDS011;10959;51.328;7.322;2023-04-01T14:46:41;3.00;;;2.70;;
21593;SDS011;10959;51.328;7.322;2023-04-01T14:49:30;2.43;;;2.23;;
21593;SDS011;10959;51.328;7.322;2023-04-01T14:52:03;2.53;;;2.33;;
21593;SDS011;10959;51.328;7.322;2023-04-01T14:54:35;3.43;;;2.93;;
21593;SDS011;10959;51.328;7.322;2023-04-01T14:57:09;2.70;;;2.50;;
21593;SDS011;10959;51.328;7.322;2023-04-01T14:59:39;2.60;;;2.40;;
21593;SDS011;10959;51.328;7.322;2023-04-01T15:02:12;2.50;;;2.30;;
21593;SDS011;10959;51.328;7.322;2023-04-01T15:04:56;3.50;;;3.20;;
21593;SDS011;10959;51.328;7.322;2023-04-01T15:07:43;2.83;;;2.53;;
21593;SDS011;10959;51.328;7.322;2023-04-01T15:13:55;3.40;;;3.10;;
21593;SDS011;10959;51.328;7.322;2023-04-01T15:16:31;2.57;;;2.40;;
21593;SDS011;10959;51.328;7.322;2023-04-01T15:19:11;2.53;;;2.33;;
21593;SDS011;10959;51.328;7.322;2023-04-01T15:21:59;2.90;;;2.60;;
21593;SDS011;10959;51.328;7.322;2023-04-01T15:24:40;2.90;;;2.60;;
21593;SDS011;10959;51.328;7.322;2023-04-01T15:27:15;3.20;;;2.90;;
21593;SDS011;10959;51.328;7.322;2023-04-01T15:32:45;6.87;;;5.40;;
21593;SDS011;10959;51.328;7.322;2023-04-01T15:35:26;4.53;;;4.10;;
21593;SDS011;10959;51.328;7.322;2023-04-01T15:38:02;4.40;;;4.00;;
21593;SDS011;10959;51.328;7.322;2023-04-01T15:40:42;5.90;;;5.30;;
21593;SDS011;10959;51.328;7.322;2023-04-01T15:43:26;3.53;;;3.23;;
21593;SDS011;10959;51.328;7.322;2023-04-01T15:46:08;3.23;;;3.00;;
21593;SDS011;10959;51.328;7.322;2023-04-01T15:48:47;2.90;;;2.23;;
21593;SDS011;10959;51.328;7.322;2023-04-01T15:51:27;3.03;;;2.83;;
21593;SDS011;10959;51.328;7.322;2023-04-01T15:54:21;3.07;;;2.83;;
21593;SDS011;10959;51.328;7.322;2023-04-01T15:56:53;3.80;;;2.73;;
21593;SDS011;10959;51.328;7.322;2023-04-01T15:59:41;3.77;;;3.47;;
21593;SDS011;10959;51.328;7.322;2023-04-01T16:02:23;3.60;;;3.30;;
21593;SDS011;10959;51.328;7.322;2023-04-01T16:04:58;3.27;;;2.97;;
21593;SDS011;10959;51.328;7.322;2023-04-01T16:10:29;3.03;;;2.83;;
21593;SDS011;10959;51.328;7.322;2023-04-01T16:13:11;4.10;;;3.70;;
21593;SDS011;10959;51.328;7.322;2023-04-01T16:15:50;3.00;;;2.80;;
21593;SDS011;10959;51.328;7.322;2023-04-01T16:18:32;2.67;;;2.47;;
21593;SDS011;10959;51.328;7.322;2023-04-01T16:21:08;3.50;;;2.47;;
21593;SDS011;10959;51.328;7.322;2023-04-01T16:23:46;3.10;;;2.90;;
21593;SDS011;10959;51.328;7.322;2023-04-01T16:26:18;2.47;;;2.27;;
21593;SDS011;10959;51.328;7.322;2023-04-01T16:28:53;2.23;;;2.03;;
21593;SDS011;10959;51.328;7.322;2023-04-01T16:31:29;1.83;;;1.73;;
21593;SDS011;10959;51.328;7.322;2023-04-01T16:34:01;2.10;;;1.73;;
21593;SDS011;10959;51.328;7.322;2023-04-01T16:36:35;1.83;;;1.67;;
21593;SDS011;10959;51.328;7.322;2023-04-01T16:39:11;2.20;;;2.00;;
21593;SDS011;10959;51.328;7.322;2023-04-01T16:41:49;1.80;;;1.70;;
21593;SDS011;10959;51.328;7.322;2023-04-01T16:44:23;2.30;;;2.10;;
21593;SDS011;10959;51.328;7.322;2023-04-01T16:46:51;1.93;;;1.83;;
21593;SDS011;10959;51.328;7.322;2023-04-01T16:49:24;1.70;;;1.60;;
21593;SDS011;10959;51.328;7.322;2023-04-01T16:51:58;2.73;;;2.50;;
21593;SDS011;10959;51.328;7.322;2023-04-01T16:54:41;2.20;;;2.00;;
21593;SDS011;10959;51.328;7.322;2023-04-01T16:57:15;2.40;;;2.30;;
21593;SDS011;10959;51.328;7.322;2023-04-01T16:59:53;3.77;;;3.57;;
21593;SDS011;10959;51.328;7.322;2023-04-01T17:02:26;2.90;;;2.70;;
21593;SDS011;10959;51.328;7.322;2023-04-01T17:04:59;2.43;;;2.23;;
21593;SDS011;10959;51.328;7.322;2023-04-01T17:07:32;2.83;;;2.43;;
21593;SDS011;10959;51.328;7.322;2023-04-01T17:10:17;2.30;;;2.10;;
21593;SDS011;10959;51.328;7.322;2023-04-01T17:13:03;3.10;;;2.90;;
21593;SDS011;10959;51.328;7.322;2023-04-01T17:15:52;3.93;;;2.73;;